createdAt,value
2022-11-13T00:02:20.587Z,97932.97
2022-11-13T00:05:06.369Z,97930.81
2022-11-13T00:07:51.576Z,97927.31
2022-11-13T00:10:36.918Z,97927.88
2022-11-13T00:13:25.030Z,97929.00
2022-11-13T00:16:17.718Z,97933.00
2022-11-13T00:19:03.075Z,97923.19
2022-11-13T00:21:48.347Z,97909.34
2022-11-13T00:24:33.847Z,97910.63
2022-11-13T00:27:19.201Z,97913.19
2022-11-13T00:30:05.861Z,97918.47
2022-11-13T00:32:50.910Z,97925.22
2022-11-13T00:35:36.147Z,97921.75
2022-11-13T00:38:21.549Z,97916.88
2022-11-13T00:41:06.828Z,97911.25
2022-11-13T00:43:52.318Z,97911.03
2022-11-13T00:46:37.333Z,97923.25
2022-11-13T00:49:22.733Z,97918.34
2022-11-13T00:52:08.026Z,97922.34
2022-11-13T00:54:53.281Z,97909.25
2022-11-13T00:57:38.638Z,97906.34
2022-11-13T01:00:23.914Z,97907.63
2022-11-13T01:03:10.020Z,97896.53
2022-11-13T01:05:55.191Z,97906.16
2022-11-13T01:08:40.766Z,97900.69
2022-11-13T01:11:28.050Z,97901.81
2022-11-13T01:14:12.989Z,97895.78
2022-11-13T01:16:58.284Z,97889.44
2022-11-13T01:19:43.609Z,97891.25
2022-11-13T01:22:28.879Z,97889.09
2022-11-13T01:25:14.424Z,97883.63
2022-11-13T01:27:59.698Z,97878.16
2022-11-13T01:30:45.175Z,97882.19
2022-11-13T01:33:30.477Z,97878.72
2022-11-13T01:36:22.044Z,97875.81
2022-11-13T01:39:07.399Z,97887.44
2022-11-13T01:41:52.749Z,97877.09
2022-11-13T01:44:57.556Z,97876.38
2022-11-13T01:47:42.962Z,97865.28
2022-11-13T01:50:28.691Z,97863.28
2022-11-13T01:53:13.930Z,97865.09
2022-11-13T01:55:59.521Z,97857.47
2022-11-13T01:58:52.166Z,97849.84
2022-11-13T02:01:37.328Z,97854.56
2022-11-13T02:04:22.810Z,97848.91
2022-11-13T02:07:10.381Z,97839.84
2022-11-13T02:09:57.443Z,97842.56
2022-11-13T02:12:47.997Z,97839.66
2022-11-13T02:15:34.162Z,97835.66
2022-11-13T02:18:21.938Z,97842.94
2022-11-13T02:21:38.709Z,97830.03
2022-11-13T02:24:25.887Z,97829.84
2022-11-13T02:27:21.407Z,97832.41
2022-11-13T02:30:19.768Z,97824.03
2022-11-13T02:33:30.085Z,97819.31
2022-11-13T02:36:15.714Z,97818.94
2022-11-13T02:39:04.486Z,97816.06
2022-11-13T02:41:49.883Z,97807.66
2022-11-13T02:44:35.276Z,97808.41
2022-11-13T02:47:20.687Z,97806.22
2022-11-13T02:50:06.512Z,97799.88
2022-11-13T02:52:51.489Z,97806.78
2022-11-13T02:55:37.026Z,97797.69
2022-11-13T02:58:22.259Z,97798.41
2022-11-13T03:01:07.707Z,97793.50
2022-11-13T03:04:06.154Z,97787.88
2022-11-13T03:06:52.019Z,97786.59
2022-11-13T03:09:37.393Z,97787.88
2022-11-13T03:12:22.858Z,97784.44
2022-11-13T03:15:08.959Z,97782.25
2022-11-13T03:17:53.995Z,97776.81
2022-11-13T03:20:41.858Z,97767.69
2022-11-13T03:23:40.214Z,97771.88
2022-11-13T03:26:28.423Z,97766.25
2022-11-13T03:29:13.839Z,97768.25
2022-11-13T03:31:59.379Z,97765.53
2022-11-13T03:34:44.558Z,97759.88
2022-11-13T03:37:29.899Z,97764.09
2022-11-13T03:40:15.114Z,97755.72
2022-11-13T03:43:00.454Z,97756.44
2022-11-13T03:45:47.205Z,97754.25
2022-11-13T03:48:33.552Z,97753.53
2022-11-13T03:51:18.758Z,97743.91
2022-11-13T03:54:04.093Z,97745.19
2022-11-13T03:56:49.519Z,97739.75
2022-11-13T03:59:34.764Z,97741.00
2022-11-13T04:02:20.193Z,97743.00
2022-11-13T04:05:06.580Z,97736.81
2022-11-13T04:07:51.775Z,97730.66
2022-11-13T04:10:37.198Z,97725.91
2022-11-13T04:13:22.398Z,97726.47
2022-11-13T04:16:07.953Z,97723.75
2022-11-13T04:18:53.236Z,97727.03
2022-11-13T04:21:38.511Z,97726.31
2022-11-13T04:24:23.882Z,97714.50
2022-11-13T04:27:09.143Z,97710.31
2022-11-13T04:29:54.414Z,97705.59
2022-11-13T04:32:39.730Z,97706.13
2022-11-13T04:35:25.072Z,97709.41
2022-11-13T04:38:10.628Z,97714.13
2022-11-13T04:41:15.814Z,97723.59
2022-11-13T04:44:00.975Z,97714.69
2022-11-13T04:46:46.542Z,97715.25
2022-11-13T04:49:38.995Z,97715.78
2022-11-13T04:52:24.040Z,97710.88
2022-11-13T04:55:10.515Z,97699.25
2022-11-13T04:57:55.792Z,97689.63
2022-11-13T05:00:41.186Z,97692.34
2022-11-13T05:03:26.378Z,97684.19
2022-11-13T05:06:11.806Z,97682.00
2022-11-13T05:08:57.123Z,97672.34
2022-11-13T05:11:42.542Z,97668.91
2022-11-13T05:14:28.038Z,97662.75
2022-11-13T05:17:13.795Z,97667.47
2022-11-13T05:19:59.042Z,97660.00
2022-11-13T05:22:44.232Z,97660.56
2022-11-13T05:25:30.145Z,97653.66
2022-11-13T05:28:15.925Z,97642.03
2022-11-13T05:31:05.879Z,97639.84
2022-11-13T05:33:51.459Z,97640.56
2022-11-13T05:36:36.997Z,97641.84
2022-11-13T05:39:22.334Z,97638.97
2022-11-13T05:42:07.653Z,97638.97
2022-11-13T05:44:52.945Z,97638.97
2022-11-13T05:47:38.371Z,97633.50
2022-11-13T05:50:23.822Z,97633.31
2022-11-13T05:53:09.034Z,97636.03
2022-11-13T05:55:54.570Z,97638.78
2022-11-13T05:58:40.055Z,97632.59
2022-11-13T06:01:31.864Z,97629.72
2022-11-13T06:04:17.063Z,97636.44
2022-11-13T06:07:02.582Z,97629.56
2022-11-13T06:09:47.786Z,97630.09
2022-11-13T06:12:33.163Z,97626.63
2022-11-13T06:15:18.891Z,97629.34
2022-11-13T06:18:04.444Z,97626.47
2022-11-13T06:20:50.349Z,97626.47
2022-11-13T06:23:37.267Z,97629.75
2022-11-13T06:26:24.965Z,97627.75
2022-11-13T06:29:11.774Z,97624.09
2022-11-13T06:31:57.012Z,97626.13
2022-11-13T06:34:42.524Z,97620.66
2022-11-13T06:37:31.418Z,97617.22
2022-11-13T06:40:19.141Z,97606.31
2022-11-13T06:43:04.218Z,97604.88
2022-11-13T06:45:49.571Z,97593.41
2022-11-13T06:48:35.059Z,97581.78
2022-11-13T06:51:25.682Z,97586.50
2022-11-13T06:54:10.831Z,97578.34
2022-11-13T06:56:56.121Z,97587.78
2022-11-13T06:59:43.576Z,97592.53
2022-11-13T07:02:28.852Z,97604.69
2022-11-13T07:05:14.218Z,97601.97
2022-11-13T07:07:59.542Z,97593.78
2022-11-13T07:10:53.684Z,97588.88
2022-11-13T07:13:39.759Z,97587.59
2022-11-13T07:16:31.161Z,97590.34
2022-11-13T07:19:24.073Z,97591.63
2022-11-13T07:22:09.395Z,97585.44
2022-11-13T07:24:54.782Z,97590.88
2022-11-13T07:27:45.047Z,97582.72
2022-11-13T07:30:30.280Z,97582.88
2022-11-13T07:33:15.683Z,97584.34
2022-11-13T07:36:01.553Z,97584.34
2022-11-13T07:38:46.985Z,97577.13
2022-11-13T07:41:32.148Z,97578.44
2022-11-13T07:44:39.998Z,97563.44
2022-11-13T07:47:23.300Z,97572.03
2022-11-13T07:50:10.991Z,97573.47
2022-11-13T07:52:58.603Z,97565.34
2022-11-13T07:55:43.861Z,97561.53
2022-11-13T07:58:29.601Z,97568.06
2022-11-13T08:01:15.357Z,97564.63
2022-11-13T08:04:00.967Z,97550.63
2022-11-13T08:06:46.050Z,97559.13
2022-11-13T08:09:31.996Z,97556.78
2022-11-13T08:12:17.201Z,97544.81
2022-11-13T08:15:02.530Z,97544.69
2022-11-13T08:17:54.347Z,97541.03
2022-11-13T08:20:40.019Z,97548.09
2022-11-13T08:23:26.511Z,97543.38
2022-11-13T08:26:11.974Z,97552.09
2022-11-13T08:28:57.278Z,97547.91
2022-11-13T08:31:42.869Z,97541.38
2022-11-13T08:34:28.025Z,97544.06
2022-11-13T08:37:13.300Z,97543.00
2022-11-13T08:39:58.782Z,97536.84
2022-11-13T08:42:44.136Z,97532.50
2022-11-13T08:45:30.089Z,97535.38
2022-11-13T08:48:15.660Z,97523.06
2022-11-13T08:51:01.194Z,97515.28
2022-11-13T08:53:46.641Z,97510.94
2022-11-13T08:56:31.977Z,97514.75
2022-11-13T08:59:17.932Z,97501.09
2022-11-13T09:02:03.070Z,97499.81
2022-11-13T09:04:48.486Z,97499.09
2022-11-13T09:07:34.048Z,97493.13
2022-11-13T09:10:19.406Z,97489.66
2022-11-13T09:13:05.758Z,97499.59
2022-11-13T09:15:51.607Z,97490.34
2022-11-13T09:18:36.890Z,97490.19
2022-11-13T09:21:22.342Z,97489.16
2022-11-13T09:24:08.163Z,97488.06
2022-11-13T09:26:53.504Z,97490.94
2022-11-13T09:29:36.167Z,97493.06
2022-11-13T09:32:21.786Z,97488.09
2022-11-13T09:38:20.185Z,97485.50
2022-11-13T09:44:56.429Z,97473.31
2022-11-13T09:47:44.664Z,97473.06
2022-11-13T09:50:31.623Z,97478.88
2022-11-13T09:53:16.945Z,97476.63
2022-11-13T09:59:36.194Z,97457.00
2022-11-13T10:02:30.667Z,97452.50
2022-11-13T10:05:29.572Z,97457.09
2022-11-13T10:08:18.927Z,97461.59
2022-11-13T10:11:37.013Z,97448.63
2022-11-13T10:14:46.273Z,97455.44
2022-11-13T10:17:41.007Z,97451.53
2022-11-13T10:20:38.519Z,97445.22
2022-11-13T10:23:36.114Z,97448.91
2022-11-13T10:26:24.618Z,97448.22
2022-11-13T10:29:15.368Z,97446.63
2022-11-13T10:32:33.734Z,97440.72
2022-11-13T10:35:28.215Z,97434.72
2022-11-13T10:38:22.343Z,97437.41
2022-11-13T10:41:11.136Z,97434.09
2022-11-13T10:43:57.289Z,97432.97
2022-11-13T10:46:42.705Z,97427.81
2022-11-13T10:49:30.850Z,97425.56
2022-11-13T10:52:30.500Z,97417.38
2022-11-13T10:55:34.067Z,97407.75
2022-11-13T10:58:20.165Z,97394.28
2022-11-13T11:01:35.467Z,97390.91
2022-11-13T11:04:27.560Z,97389.94
2022-11-13T11:07:21.944Z,97378.53
2022-11-13T11:10:29.604Z,97371.09
2022-11-13T11:13:22.690Z,97373.88
2022-11-13T11:16:08.597Z,97365.69
2022-11-13T11:18:57.187Z,97364.41
2022-11-13T11:21:43.409Z,97355.06
2022-11-13T11:24:34.125Z,97349.63
2022-11-13T11:27:50.173Z,97350.91
2022-11-13T11:30:53.554Z,97343.75
2022-11-13T11:33:49.181Z,97341.41
2022-11-13T11:36:44.747Z,97341.41
2022-11-13T11:39:51.946Z,97327.88
2022-11-13T11:42:50.587Z,97326.47
2022-11-13T11:45:41.278Z,97323.47
2022-11-13T11:48:30.974Z,97325.97
2022-11-13T11:51:26.981Z,97324.56
2022-11-13T11:54:56.949Z,97314.22
2022-11-13T11:57:56.675Z,97313.47
2022-11-13T12:00:49.775Z,97311.50
2022-11-13T12:03:59.459Z,97313.94
2022-11-13T12:06:57.056Z,97303.88
2022-11-13T12:09:52.407Z,97293.97
2022-11-13T12:12:56.687Z,97295.25
2022-11-13T12:16:01.025Z,97294.28
2022-11-13T12:18:54.613Z,97286.81
2022-11-13T12:22:15.302Z,97268.41
2022-11-13T12:25:18.905Z,97270.41
2022-11-13T12:28:47.150Z,97265.69
2022-11-13T12:31:53.981Z,97268.72
2022-11-13T12:34:45.149Z,97259.22
2022-11-13T12:37:51.820Z,97254.47
2022-11-13T12:40:49.771Z,97252.00
2022-11-13T12:43:34.843Z,97249.41
2022-11-13T12:46:20.486Z,97248.81
2022-11-13T12:49:23.885Z,97242.78
2022-11-13T12:52:15.665Z,97244.47
2022-11-13T12:55:06.496Z,97235.97
2022-11-13T12:57:52.179Z,97232.41
2022-11-13T13:00:40.232Z,97233.97
2022-11-13T13:03:41.279Z,97225.06
2022-11-13T13:06:26.401Z,97221.31
2022-11-13T13:09:33.130Z,97221.75
2022-11-13T13:12:29.943Z,97223.34
2022-11-13T13:15:29.710Z,97219.59
2022-11-13T13:18:18.161Z,97217.28
2022-11-13T13:21:06.437Z,97221.75
2022-11-13T13:23:56.777Z,97228.94
2022-11-13T13:26:46.911Z,97228.50
2022-11-13T13:29:33.856Z,97232.66
2022-11-13T13:32:26.699Z,97222.69
2022-11-13T13:35:32.327Z,97228.41
2022-11-13T13:38:35.362Z,97226.34
2022-11-13T13:41:39.218Z,97214.78
2022-11-13T13:44:51.039Z,97217.19
2022-11-13T13:47:41.557Z,97217.91
2022-11-13T13:50:31.830Z,97215.13
2022-11-13T13:53:18.982Z,97212.09
2022-11-13T13:56:04.967Z,97218.69
2022-11-13T13:58:50.981Z,97224.97
2022-11-13T14:01:36.737Z,97216.16
2022-11-13T14:04:23.441Z,97207.56
2022-11-13T14:07:29.019Z,97210.91
2022-11-13T14:10:18.774Z,97210.06
2022-11-13T14:13:04.622Z,97214.66
2022-11-13T14:15:50.218Z,97203.31
2022-11-13T14:18:35.970Z,97195.34
2022-11-13T14:21:23.028Z,97196.09
2022-11-13T14:24:21.674Z,97190.28
2022-11-13T14:27:08.678Z,97187.22
2022-11-13T14:29:59.522Z,97184.97
2022-11-13T14:32:47.130Z,97190.50
2022-11-13T14:35:32.661Z,97184.63
2022-11-13T14:38:23.687Z,97189.38
2022-11-13T14:41:35.412Z,97191.72
2022-11-13T14:44:32.821Z,97200.47
2022-11-13T14:47:29.438Z,97195.41
2022-11-13T14:50:23.096Z,97191.31
2022-11-13T14:53:10.257Z,97186.13
2022-11-13T14:55:58.298Z,97186.69
2022-11-13T14:58:49.374Z,97184.69
2022-11-13T15:01:34.252Z,97186.06
2022-11-13T15:04:19.268Z,97190.28
2022-11-13T15:07:21.553Z,97192.78
2022-11-13T15:10:11.662Z,97190.94
2022-11-13T15:12:57.164Z,97194.22
2022-11-13T15:15:42.639Z,97187.06
2022-11-13T15:18:27.807Z,97185.97
2022-11-13T15:21:13.277Z,97185.72
2022-11-13T15:24:01.050Z,97191.56
2022-11-13T15:26:46.929Z,97178.75
2022-11-13T15:29:32.830Z,97176.81
2022-11-13T15:32:18.152Z,97172.25
2022-11-13T15:35:05.378Z,97176.03
2022-11-13T15:37:51.282Z,97176.34
2022-11-13T15:40:37.910Z,97176.91
2022-11-13T15:43:23.103Z,97172.00
2022-11-13T15:46:14.672Z,97168.97
2022-11-13T15:49:00.237Z,97177.84
2022-11-13T15:51:48.453Z,97169.19
2022-11-13T15:54:35.167Z,97160.38
2022-11-13T15:57:30.534Z,97166.44
2022-11-13T16:00:21.639Z,97161.06
2022-11-13T16:03:11.744Z,97162.00
2022-11-13T16:05:58.583Z,97157.34
2022-11-13T16:08:44.204Z,97149.22
2022-11-13T16:11:32.057Z,97150.91
2022-11-13T16:14:21.894Z,97142.81
2022-11-13T16:17:20.317Z,97143.03
2022-11-13T16:20:07.797Z,97130.75
2022-11-13T16:22:53.010Z,97137.69
2022-11-13T16:25:38.240Z,97129.72
2022-11-13T16:28:23.625Z,97133.53
2022-11-13T16:31:08.934Z,97141.53
2022-11-13T16:33:54.254Z,97138.44
2022-11-13T16:36:39.748Z,97136.47
2022-11-13T16:39:24.779Z,97134.66
2022-11-13T16:42:10.530Z,97133.56
2022-11-13T16:44:55.997Z,97136.59
2022-11-13T16:47:41.437Z,97138.31
2022-11-13T16:50:30.353Z,97139.38
2022-11-13T16:53:16.158Z,97139.78
2022-11-13T16:56:01.892Z,97140.78
2022-11-13T16:58:47.521Z,97143.78
2022-11-13T17:01:32.984Z,97149.88
2022-11-13T17:04:18.226Z,97147.25
2022-11-13T17:07:03.660Z,97145.75
2022-11-13T17:09:58.929Z,97138.06
2022-11-13T17:12:54.717Z,97134.56
2022-11-13T17:15:39.816Z,97143.19
2022-11-13T17:18:25.271Z,97143.53
2022-11-13T17:21:11.281Z,97137.84
2022-11-13T17:23:57.394Z,97133.97
2022-11-13T17:26:42.768Z,97142.47
2022-11-13T17:29:28.256Z,97143.34
2022-11-13T17:32:15.019Z,97148.97
2022-11-13T17:35:00.741Z,97156.00
2022-11-13T17:37:46.004Z,97146.00
2022-11-13T17:40:31.446Z,97157.06
2022-11-13T17:43:16.703Z,97160.66
2022-11-13T17:46:02.217Z,97158.66
2022-11-13T17:48:48.156Z,97161.38
2022-11-13T17:51:33.333Z,97175.88
2022-11-13T17:54:18.780Z,97172.03
2022-11-13T17:57:05.736Z,97168.03
2022-11-13T17:59:51.149Z,97185.28
2022-11-13T18:02:36.449Z,97169.06
2022-11-13T18:05:22.466Z,97173.94
2022-11-13T18:08:08.301Z,97174.13
2022-11-13T18:10:53.839Z,97179.72
2022-11-13T18:13:39.140Z,97173.72
2022-11-13T18:16:31.452Z,97166.25
2022-11-13T18:19:16.810Z,97169.16
2022-11-13T18:22:02.232Z,97167.84
2022-11-13T18:24:48.140Z,97163.13
2022-11-13T18:27:33.525Z,97163.28
2022-11-13T18:30:19.127Z,97160.00
2022-11-13T18:33:04.692Z,97160.00
2022-11-13T18:35:49.907Z,97163.59
2022-11-13T18:38:35.780Z,97158.84
2022-11-13T18:41:22.431Z,97171.94
2022-11-13T18:44:08.043Z,97167.94
2022-11-13T18:46:54.019Z,97164.63
2022-11-13T18:49:39.636Z,97159.19
2022-11-13T18:52:25.041Z,97151.16
2022-11-13T18:55:10.347Z,97143.72
2022-11-13T18:57:55.735Z,97156.06
2022-11-13T19:00:41.170Z,97147.88
2022-11-13T19:03:26.875Z,97146.00
2022-11-13T19:06:15.096Z,97137.84
2022-11-13T19:09:07.005Z,97134.56
2022-11-13T19:11:54.268Z,97131.97
2022-11-13T19:14:39.583Z,97134.84
2022-11-13T19:17:24.950Z,97131.41
2022-11-13T19:20:10.457Z,97130.13
2022-11-13T19:22:55.937Z,97135.75
2022-11-13T19:25:41.171Z,97135.75
2022-11-13T19:28:26.880Z,97126.25
2022-11-13T19:31:18.218Z,97137.88
2022-11-13T19:34:06.153Z,97134.59
2022-11-13T19:36:52.608Z,97129.31
2022-11-13T19:39:38.165Z,97134.91
2022-11-13T19:42:23.411Z,97134.91
2022-11-13T19:45:09.053Z,97123.41
2022-11-13T19:47:54.078Z,97124.13
2022-11-13T19:50:39.523Z,97124.31
2022-11-13T19:53:25.058Z,97116.84
2022-11-13T19:56:10.301Z,97119.72
2022-11-13T19:58:56.207Z,97120.44
2022-11-13T20:01:42.168Z,97121.91
2022-11-13T20:04:27.367Z,97126.78
2022-11-13T20:07:12.884Z,97127.50
2022-11-13T20:09:58.257Z,97128.94
2022-11-13T20:12:43.655Z,97131.09
2022-11-13T20:15:29.121Z,97125.81
2022-11-13T20:18:14.433Z,97109.47
2022-11-13T20:21:00.168Z,97102.00
2022-11-13T20:23:45.572Z,97098.69
2022-11-13T20:26:31.125Z,97100.13
2022-11-13T20:29:16.921Z,97104.31
2022-11-13T20:32:02.197Z,97098.13
2022-11-13T20:34:47.644Z,97094.13
2022-11-13T20:37:33.402Z,97096.84
2022-11-13T20:40:18.614Z,97100.28
2022-11-13T20:43:03.930Z,97103.00
2022-11-13T20:45:49.399Z,97101.00
2022-11-13T20:48:35.217Z,97101.00
2022-11-13T20:51:22.994Z,97099.00
2022-11-13T20:54:08.007Z,97090.09
2022-11-13T20:56:53.416Z,97096.97
2022-11-13T20:59:38.604Z,97107.91
2022-11-13T21:02:24.070Z,97107.19
2022-11-13T21:05:09.475Z,97097.56
2022-11-13T21:07:54.803Z,97093.53
2022-11-13T21:10:40.590Z,97102.31
2022-11-13T21:13:25.930Z,97107.03
2022-11-13T21:16:11.555Z,97102.31
2022-11-13T21:18:58.230Z,97107.75
2022-11-13T21:21:43.827Z,97104.31
2022-11-13T21:24:29.244Z,97091.94
2022-11-13T21:27:14.628Z,97083.03
2022-11-13T21:30:00.049Z,97076.16
2022-11-13T21:32:45.401Z,97071.97
2022-11-13T21:35:30.773Z,97058.16
2022-11-13T21:38:16.089Z,97059.44
2022-11-13T21:41:23.409Z,97062.75
2022-11-13T21:44:10.659Z,97044.38
2022-11-13T21:46:56.154Z,97041.50
2022-11-13T21:49:41.794Z,97037.34
2022-11-13T21:52:27.417Z,97036.75
2022-11-13T21:55:12.913Z,97030.59
2022-11-13T21:57:58.086Z,97035.31
2022-11-13T22:00:44.410Z,97029.88
2022-11-13T22:03:29.874Z,97026.44
2022-11-13T22:06:22.838Z,97026.25
2022-11-13T22:09:15.157Z,97024.25
2022-11-13T22:12:00.917Z,97033.16
2022-11-13T22:14:45.961Z,97027.69
2022-11-13T22:17:31.263Z,97029.00
2022-11-13T22:20:16.680Z,97031.56
2022-11-13T22:23:05.430Z,97035.59
2022-11-13T22:25:54.534Z,97041.78
2022-11-13T22:28:43.842Z,97035.59
2022-11-13T22:31:30.954Z,97030.69
2022-11-13T22:34:16.094Z,97027.97
2022-11-13T22:37:01.524Z,97027.97
2022-11-13T22:39:46.898Z,97031.28
2022-11-13T22:42:32.272Z,97039.44
2022-11-13T22:45:23.811Z,97027.09
2022-11-13T22:48:12.565Z,97018.94
2022-11-13T22:51:06.677Z,97024.38
2022-11-13T22:54:04.648Z,97015.47
2022-11-13T22:56:50.187Z,97024.38
2022-11-13T22:59:35.562Z,97017.50
2022-11-13T23:02:20.881Z,97024.25
2022-11-13T23:05:06.380Z,97011.31
2022-11-13T23:07:52.939Z,97002.41
2022-11-13T23:10:38.454Z,96988.78
2022-11-13T23:13:25.076Z,96986.06
2022-11-13T23:16:11.615Z,96971.69
2022-11-13T23:18:57.983Z,96972.44
2022-11-13T23:21:46.198Z,96979.16
2022-11-13T23:24:31.865Z,96968.22
2022-11-13T23:27:16.913Z,96964.06
2022-11-13T23:30:02.342Z,96962.06
2022-11-13T23:32:47.747Z,96958.63
2022-11-13T23:35:33.272Z,96951.16
2022-11-13T23:38:18.695Z,96952.44
2022-11-13T23:41:04.134Z,96957.91
2022-11-13T23:46:54.443Z,96951.03
2022-11-13T23:49:39.613Z,96955.03
2022-11-13T23:52:24.922Z,96957.78
2022-11-13T23:55:10.452Z,96952.16
2022-11-13T23:58:01.774Z,96945.97
